sensor_id;sensor_type;location;lat;lon;timestamp;pressure;altitude;pressure_sealevel;temperature;humidity
56894;BME280;43392;50.078;13.704;2024-01-30T00:00:23;98607.72;;;-1.43;89.30
56894;BME280;43392;50.078;13.704;2024-01-30T00:02:50;98610.31;;;-1.51;88.73
56894;BME280;43392;50.078;13.704;2024-01-30T00:05:17;98606.50;;;-1.57;89.47
56894;BME280;43392;50.078;13.704;2024-01-30T00:07:45;98600.56;;;-1.59;88.98
56894;BME280;43392;50.078;13.704;2024-01-30T00:10:11;98608.28;;;-1.57;89.68
56894;BME280;43392;50.078;13.704;2024-01-30T00:12:38;98615.38;;;-1.58;89.32
56894;BME280;43392;50.078;13.704;2024-01-30T00:15:05;98609.56;;;-1.69;88.86
56894;BME280;43392;50.078;13.704;2024-01-30T00:17:35;98623.97;;;-1.81;89.38
56894;BME280;43392;50.078;13.704;2024-01-30T00:20:02;98614.75;;;-1.85;90.14
56894;BME280;43392;50.078;13.704;2024-01-30T00:22:30;98616.59;;;-1.78;89.77
56894;BME280;43392;50.078;13.704;2024-01-30T00:24:58;98598.03;;;-1.76;89.76
56894;BME280;43392;50.078;13.704;2024-01-30T00:27:25;98616.47;;;-1.68;90.14
56894;BME280;43392;50.078;13.704;2024-01-30T00:29:52;98613.53;;;-1.65;90.02
56894;BME280;43392;50.078;13.704;2024-01-30T00:32:19;98606.00;;;-1.60;89.41
56894;BME280;43392;50.078;13.704;2024-01-30T00:34:45;98607.50;;;-1.58;89.36
56894;BME280;43392;50.078;13.704;2024-01-30T00:37:12;98606.19;;;-1.54;89.44
56894;BME280;43392;50.078;13.704;2024-01-30T00:39:38;98613.09;;;-1.53;89.37
56894;BME280;43392;50.078;13.704;2024-01-30T00:42:07;98612.09;;;-1.52;89.15
56894;BME280;43392;50.078;13.704;2024-01-30T00:44:34;98603.25;;;-1.51;89.08
56894;BME280;43392;50.078;13.704;2024-01-30T00:47:02;98611.28;;;-1.52;89.16
56894;BME280;43392;50.078;13.704;2024-01-30T00:49:29;98606.66;;;-1.50;89.63
56894;BME280;43392;50.078;13.704;2024-01-30T00:51:56;98606.84;;;-1.52;89.47
56894;BME280;43392;50.078;13.704;2024-01-30T00:54:22;98615.53;;;-1.59;89.49
56894;BME280;43392;50.078;13.704;2024-01-30T00:56:49;98601.53;;;-1.68;89.54
56894;BME280;43392;50.078;13.704;2024-01-30T00:59:17;98606.28;;;-1.71;89.65
56894;BME280;43392;50.078;13.704;2024-01-30T01:01:43;98601.66;;;-1.69;90.34
56894;BME280;43392;50.078;13.704;2024-01-30T01:04:10;98604.63;;;-1.72;90.06
56894;BME280;43392;50.078;13.704;2024-01-30T01:06:37;98614.13;;;-1.79;90.03
56894;BME280;43392;50.078;13.704;2024-01-30T01:09:03;98611.97;;;-1.84;90.24
56894;BME280;43392;50.078;13.704;2024-01-30T01:11:30;98591.09;;;-1.85;90.64
56894;BME280;43392;50.078;13.704;2024-01-30T01:13:56;98602.50;;;-1.77;91.14
56894;BME280;43392;50.078;13.704;2024-01-30T01:16:24;98597.22;;;-1.77;90.63
56894;BME280;43392;50.078;13.704;2024-01-30T01:18:51;98588.66;;;-1.79;90.75
56894;BME280;43392;50.078;13.704;2024-01-30T01:21:18;98591.44;;;-1.80;90.54
56894;BME280;43392;50.078;13.704;2024-01-30T01:23:44;98587.50;;;-1.76;90.92
56894;BME280;43392;50.078;13.704;2024-01-30T01:26:11;98595.41;;;-1.76;90.72
56894;BME280;43392;50.078;13.704;2024-01-30T01:28:39;98592.78;;;-1.76;90.81
56894;BME280;43392;50.078;13.704;2024-01-30T01:31:06;98588.88;;;-1.72;90.44
56894;BME280;43392;50.078;13.704;2024-01-30T01:33:34;98584.63;;;-1.65;90.49
56894;BME280;43392;50.078;13.704;2024-01-30T01:36:02;98590.22;;;-1.60;90.16
56894;BME280;43392;50.078;13.704;2024-01-30T01:38:29;98578.56;;;-1.58;90.10
56894;BME280;43392;50.078;13.704;2024-01-30T01:40:55;98577.06;;;-1.52;90.38
56894;BME280;43392;50.078;13.704;2024-01-30T01:43:22;98585.63;;;-1.50;90.02
56894;BME280;43392;50.078;13.704;2024-01-30T01:45:49;98585.94;;;-1.61;89.07
56894;BME280;43392;50.078;13.704;2024-01-30T01:48:15;98577.69;;;-1.66;90.00
56894;BME280;43392;50.078;13.704;2024-01-30T01:50:44;98578.19;;;-1.71;89.76
56894;BME280;43392;50.078;13.704;2024-01-30T01:53:14;98574.56;;;-1.70;89.75
56894;BME280;43392;50.078;13.704;2024-01-30T01:55:42;98580.81;;;-1.71;90.02
56894;BME280;43392;50.078;13.704;2024-01-30T01:58:09;98586.38;;;-1.74;90.06
56894;BME280;43392;50.078;13.704;2024-01-30T02:00:38;98588.16;;;-1.82;90.01
56894;BME280;43392;50.078;13.704;2024-01-30T02:03:06;98579.41;;;-1.91;90.16
56894;BME280;43392;50.078;13.704;2024-01-30T02:05:33;98571.50;;;-1.91;89.90
56894;BME280;43392;50.078;13.704;2024-01-30T02:08:02;98577.78;;;-1.84;89.83
56894;BME280;43392;50.078;13.704;2024-01-30T02:10:29;98570.41;;;-1.80;90.03
56894;BME280;43392;50.078;13.704;2024-01-30T02:12:55;98571.06;;;-1.78;90.32
56894;BME280;43392;50.078;13.704;2024-01-30T02:15:22;98578.47;;;-1.82;90.02
56894;BME280;43392;50.078;13.704;2024-01-30T02:17:49;98573.22;;;-1.82;89.76
56894;BME280;43392;50.078;13.704;2024-01-30T02:20:15;98575.38;;;-1.77;89.80
56894;BME280;43392;50.078;13.704;2024-01-30T02:22:43;98570.72;;;-1.83;89.56
56894;BME280;43392;50.078;13.704;2024-01-30T02:25:11;98577.78;;;-1.84;89.66
56894;BME280;43392;50.078;13.704;2024-01-30T02:27:37;98575.66;;;-1.80;90.02
56894;BME280;43392;50.078;13.704;2024-01-30T02:30:05;98581.94;;;-1.73;90.19
56894;BME280;43392;50.078;13.704;2024-01-30T02:32:32;98567.34;;;-1.68;89.90
56894;BME280;43392;50.078;13.704;2024-01-30T02:34:58;98562.56;;;-1.64;90.08
56894;BME280;43392;50.078;13.704;2024-01-30T02:37:25;98573.75;;;-1.62;89.74
56894;BME280;43392;50.078;13.704;2024-01-30T02:39:53;98567.22;;;-1.58;89.59
56894;BME280;43392;50.078;13.704;2024-01-30T02:42:19;98565.25;;;-1.56;89.74
56894;BME280;43392;50.078;13.704;2024-01-30T02:44:46;98559.81;;;-1.55;89.13
56894;BME280;43392;50.078;13.704;2024-01-30T02:47:13;98560.16;;;-1.58;89.10
56894;BME280;43392;50.078;13.704;2024-01-30T02:49:40;98560.47;;;-1.61;89.37
56894;BME280;43392;50.078;13.704;2024-01-30T02:52:06;98558.31;;;-1.57;89.25
56894;BME280;43392;50.078;13.704;2024-01-30T02:54:33;98559.00;;;-1.55;89.38
56894;BME280;43392;50.078;13.704;2024-01-30T02:57:01;98561.25;;;-1.68;88.89
56894;BME280;43392;50.078;13.704;2024-01-30T02:59:27;98560.41;;;-1.77;89.49
56894;BME280;43392;50.078;13.704;2024-01-30T03:01:54;98557.03;;;-1.95;89.54
56894;BME280;43392;50.078;13.704;2024-01-30T03:04:22;98555.16;;;-2.11;89.52
56894;BME280;43392;50.078;13.704;2024-01-30T03:06:48;98550.69;;;-2.18;90.07
56894;BME280;43392;50.078;13.704;2024-01-30T03:09:16;98545.56;;;-2.28;90.34
56894;BME280;43392;50.078;13.704;2024-01-30T03:11:42;98546.34;;;-2.35;90.18
56894;BME280;43392;50.078;13.704;2024-01-30T03:14:10;98548.84;;;-2.26;90.67
56894;BME280;43392;50.078;13.704;2024-01-30T03:16:37;98551.84;;;-2.21;90.68
56894;BME280;43392;50.078;13.704;2024-01-30T03:19:05;98547.38;;;-2.20;90.59
56894;BME280;43392;50.078;13.704;2024-01-30T03:21:32;98538.69;;;-2.21;90.50
56894;BME280;43392;50.078;13.704;2024-01-30T03:23:59;98541.47;;;-2.22;90.40
56894;BME280;43392;50.078;13.704;2024-01-30T03:26:26;98532.63;;;-2.21;90.45
56894;BME280;43392;50.078;13.704;2024-01-30T03:28:53;98534.41;;;-2.22;90.16
56894;BME280;43392;50.078;13.704;2024-01-30T03:31:21;98540.97;;;-2.26;89.78
56894;BME280;43392;50.078;13.704;2024-01-30T03:33:48;98539.78;;;-2.31;90.20
56894;BME280;43392;50.078;13.704;2024-01-30T03:36:15;98542.41;;;-2.31;90.63
56894;BME280;43392;50.078;13.704;2024-01-30T03:38:42;98538.47;;;-2.27;90.82
56894;BME280;43392;50.078;13.704;2024-01-30T03:41:08;98538.19;;;-2.24;90.33
56894;BME280;43392;50.078;13.704;2024-01-30T03:43:35;98538.84;;;-2.22;90.47
56894;BME280;43392;50.078;13.704;2024-01-30T03:46:02;98536.50;;;-2.25;89.85
56894;BME280;43392;50.078;13.704;2024-01-30T03:48:30;98535.25;;;-2.21;90.23
56894;BME280;43392;50.078;13.704;2024-01-30T03:50:57;98534.72;;;-2.25;89.51
56894;BME280;43392;50.078;13.704;2024-01-30T03:53:23;98536.50;;;-2.33;90.20
56894;BME280;43392;50.078;13.704;2024-01-30T03:55:50;98544.00;;;-2.38;89.71
56894;BME280;43392;50.078;13.704;2024-01-30T03:58:16;98543.81;;;-2.45;90.22
56894;BME280;43392;50.078;13.704;2024-01-30T04:00:43;98543.13;;;-2.47;90.86
56894;BME280;43392;50.078;13.704;2024-01-30T04:03:10;98541.03;;;-2.43;90.32
56894;BME280;43392;50.078;13.704;2024-01-30T04:05:38;98544.94;;;-2.47;90.37
56894;BME280;43392;50.078;13.704;2024-01-30T04:08:05;98539.00;;;-2.49;90.36
56894;BME280;43392;50.078;13.704;2024-01-30T04:10:31;98539.63;;;-2.55;90.27
56894;BME280;43392;50.078;13.704;2024-01-30T04:12:58;98542.97;;;-2.71;90.19
56894;BME280;43392;50.078;13.704;2024-01-30T04:15:24;98533.94;;;-2.69;91.44
56894;BME280;43392;50.078;13.704;2024-01-30T04:17:51;98536.13;;;-2.64;91.34
56894;BME280;43392;50.078;13.704;2024-01-30T04:20:18;98530.44;;;-2.59;91.22
56894;BME280;43392;50.078;13.704;2024-01-30T04:22:46;98536.66;;;-2.60;90.19
56894;BME280;43392;50.078;13.704;2024-01-30T04:25:13;98537.78;;;-2.63;90.27
56894;BME280;43392;50.078;13.704;2024-01-30T04:27:40;98539.63;;;-2.81;90.29
56894;BME280;43392;50.078;13.704;2024-01-30T04:30:07;98535.13;;;-2.89;91.02
56894;BME280;43392;50.078;13.704;2024-01-30T04:32:35;98542.47;;;-2.92;91.33
56894;BME280;43392;50.078;13.704;2024-01-30T04:35:02;98538.81;;;-2.82;91.31
56894;BME280;43392;50.078;13.704;2024-01-30T04:37:29;98534.38;;;-2.81;90.98
56894;BME280;43392;50.078;13.704;2024-01-30T04:39:57;98542.28;;;-2.73;90.71
56894;BME280;43392;50.078;13.704;2024-01-30T04:42:24;98548.91;;;-2.69;90.64
56894;BME280;43392;50.078;13.704;2024-01-30T04:44:50;98540.66;;;-2.74;90.02
56894;BME280;43392;50.078;13.704;2024-01-30T04:47:17;98537.69;;;-2.79;90.52
56894;BME280;43392;50.078;13.704;2024-01-30T04:49:43;98534.81;;;-2.86;90.48
56894;BME280;43392;50.078;13.704;2024-01-30T04:52:10;98547.28;;;-2.88;90.64
56894;BME280;43392;50.078;13.704;2024-01-30T04:54:37;98550.13;;;-2.81;91.07
56894;BME280;43392;50.078;13.704;2024-01-30T04:57:05;98550.88;;;-2.89;90.96
56894;BME280;43392;50.078;13.704;2024-01-30T04:59:34;98552.16;;;-2.93;90.62
56894;BME280;43392;50.078;13.704;2024-01-30T05:02:01;98555.47;;;-2.91;90.92
56894;BME280;43392;50.078;13.704;2024-01-30T05:04:28;98560.03;;;-2.93;90.88
56894;BME280;43392;50.078;13.704;2024-01-30T05:06:54;98549.06;;;-2.88;90.58
56894;BME280;43392;50.078;13.704;2024-01-30T05:09:21;98558.81;;;-2.81;90.67
56894;BME280;43392;50.078;13.704;2024-01-30T05:11:48;98560.97;;;-2.76;90.33
56894;BME280;43392;50.078;13.704;2024-01-30T05:14:15;98552.13;;;-2.75;90.68
56894;BME280;43392;50.078;13.704;2024-01-30T05:16:43;98557.00;;;-2.80;89.79
56894;BME280;43392;50.078;13.704;2024-01-30T05:19:12;98549.22;;;-2.90;90.21
56894;BME280;43392;50.078;13.704;2024-01-30T05:21:39;98547.72;;;-2.92;90.83
56894;BME280;43392;50.078;13.704;2024-01-30T05:24:06;98543.38;;;-2.84;90.86
56894;BME280;43392;50.078;13.704;2024-01-30T05:26:32;98543.59;;;-2.77;90.66
56894;BME280;43392;50.078;13.704;2024-01-30T05:28:59;98545.53;;;-2.79;90.37
56894;BME280;43392;50.078;13.704;2024-01-30T05:31:27;98550.16;;;-2.73;91.04
56894;BME280;43392;50.078;13.704;2024-01-30T05:33:54;98551.84;;;-2.72;90.50
56894;BME280;43392;50.078;13.704;2024-01-30T05:36:21;98543.41;;;-2.76;90.15
56894;BME280;43392;50.078;13.704;2024-01-30T05:38:47;98547.09;;;-2.69;90.59
56894;BME280;43392;50.078;13.704;2024-01-30T05:41:14;98548.28;;;-2.63;90.90
56894;BME280;43392;50.078;13.704;2024-01-30T05:43:41;98544.06;;;-2.56;90.38
56894;BME280;43392;50.078;13.704;2024-01-30T05:46:07;98546.75;;;-2.48;90.72
56894;BME280;43392;50.078;13.704;2024-01-30T05:48:36;98550.56;;;-2.42;90.30
56894;BME280;43392;50.078;13.704;2024-01-30T05:51:03;98547.59;;;-2.39;89.95
56894;BME280;43392;50.078;13.704;2024-01-30T05:53:30;98550.91;;;-2.37;90.09
56894;BME280;43392;50.078;13.704;2024-01-30T05:55:56;98536.84;;;-2.54;89.29
56894;BME280;43392;50.078;13.704;2024-01-30T05:58:23;98537.59;;;-2.61;89.63
56894;BME280;43392;50.078;13.704;2024-01-30T06:00:49;98548.75;;;-2.67;89.80
56894;BME280;43392;50.078;13.704;2024-01-30T06:03:16;98556.72;;;-2.77;89.22
56894;BME280;43392;50.078;13.704;2024-01-30T06:05:44;98561.88;;;-2.85;89.57
56894;BME280;43392;50.078;13.704;2024-01-30T06:08:11;98551.69;;;-2.88;90.30
56894;BME280;43392;50.078;13.704;2024-01-30T06:10:37;98563.69;;;-2.86;90.45
56894;BME280;43392;50.078;13.704;2024-01-30T06:13:04;98560.75;;;-2.83;90.38
56894;BME280;43392;50.078;13.704;2024-01-30T06:15:31;98562.19;;;-2.88;90.26
56894;BME280;43392;50.078;13.704;2024-01-30T06:17:57;98566.09;;;-2.92;90.18
56894;BME280;43392;50.078;13.704;2024-01-30T06:20:24;98565.22;;;-3.01;90.25
56894;BME280;43392;50.078;13.704;2024-01-30T06:22:52;98565.34;;;-3.02;90.47
56894;BME280;43392;50.078;13.704;2024-01-30T06:25:19;98567.84;;;-3.01;90.96
56894;BME280;43392;50.078;13.704;2024-01-30T06:27:46;98561.47;;;-2.98;91.19
56894;BME280;43392;50.078;13.704;2024-01-30T06:30:13;98563.56;;;-2.84;90.98
56894;BME280;43392;50.078;13.704;2024-01-30T06:32:39;98568.03;;;-2.77;90.86
56894;BME280;43392;50.078;13.704;2024-01-30T06:35:06;98563.75;;;-2.78;90.18
56894;BME280;43392;50.078;13.704;2024-01-30T06:37:33;98569.00;;;-2.78;90.09
56894;BME280;43392;50.078;13.704;2024-01-30T06:40:01;98567.50;;;-2.80;90.32
56894;BME280;43392;50.078;13.704;2024-01-30T06:42:29;98566.69;;;-2.81;90.23
56894;BME280;43392;50.078;13.704;2024-01-30T06:44:56;98567.31;;;-2.87;89.82
56894;BME280;43392;50.078;13.704;2024-01-30T06:47:23;98571.34;;;-2.92;90.61
56894;BME280;43392;50.078;13.704;2024-01-30T06:49:49;98568.34;;;-2.97;90.28
56894;BME280;43392;50.078;13.704;2024-01-30T06:52:16;98569.09;;;-3.05;90.02
56894;BME280;43392;50.078;13.704;2024-01-30T06:54:42;98566.94;;;-3.09;90.53
56894;BME280;43392;50.078;13.704;2024-01-30T06:57:10;98572.34;;;-3.11;91.18
56894;BME280;43392;50.078;13.704;2024-01-30T06:59:39;98580.88;;;-3.09;91.18
56894;BME280;43392;50.078;13.704;2024-01-30T07:02:08;98583.88;;;-3.04;91.33
56894;BME280;43392;50.078;13.704;2024-01-30T07:04:35;98583.25;;;-2.98;91.20
56894;BME280;43392;50.078;13.704;2024-01-30T07:07:03;98579.75;;;-2.89;91.40
56894;BME280;43392;50.078;13.704;2024-01-30T07:09:31;98587.19;;;-2.84;91.24
56894;BME280;43392;50.078;13.704;2024-01-30T07:11:57;98585.38;;;-2.84;90.95
56894;BME280;43392;50.078;13.704;2024-01-30T07:14:25;98583.88;;;-2.86;90.56
56894;BME280;43392;50.078;13.704;2024-01-30T07:16:52;98584.19;;;-2.89;91.13
56894;BME280;43392;50.078;13.704;2024-01-30T07:19:19;98582.06;;;-2.86;91.33
56894;BME280;43392;50.078;13.704;2024-01-30T07:21:45;98576.50;;;-2.83;91.01
56894;BME280;43392;50.078;13.704;2024-01-30T07:24:12;98589.34;;;-2.80;91.31
56894;BME280;43392;50.078;13.704;2024-01-30T07:26:38;98594.13;;;-2.75;91.35
56894;BME280;43392;50.078;13.704;2024-01-30T07:29:05;98584.22;;;-2.63;90.90
56894;BME280;43392;50.078;13.704;2024-01-30T07:31:33;98574.59;;;-2.55;90.84
56894;BME280;43392;50.078;13.704;2024-01-30T07:34:00;98569.84;;;-2.51;90.58
56894;BME280;43392;50.078;13.704;2024-01-30T07:36:26;98568.72;;;-2.49;90.65
56894;BME280;43392;50.078;13.704;2024-01-30T07:38:53;98574.81;;;-2.48;90.45
56894;BME280;43392;50.078;13.704;2024-01-30T07:41:20;98567.00;;;-2.40;90.31
56894;BME280;43392;50.078;13.704;2024-01-30T07:43:48;98576.56;;;-2.31;90.18
56894;BME280;43392;50.078;13.704;2024-01-30T07:46:14;98570.38;;;-2.22;90.49
56894;BME280;43392;50.078;13.704;2024-01-30T07:48:42;98571.09;;;-2.12;90.18
56894;BME280;43392;50.078;13.704;2024-01-30T07:51:09;98569.47;;;-2.05;90.20
56894;BME280;43392;50.078;13.704;2024-01-30T07:53:36;98574.91;;;-1.98;89.70
56894;BME280;43392;50.078;13.704;2024-01-30T07:56:03;98563.59;;;-1.99;89.54
56894;BME280;43392;50.078;13.704;2024-01-30T07:58:29;98580.53;;;-1.93;89.25
56894;BME280;43392;50.078;13.704;2024-01-30T08:00:56;98573.81;;;-1.88;88.92
56894;BME280;43392;50.078;13.704;2024-01-30T08:03:23;98578.13;;;-1.87;88.74
56894;BME280;43392;50.078;13.704;2024-01-30T08:05:51;98565.91;;;-1.96;88.64
56894;BME280;43392;50.078;13.704;2024-01-30T08:08:18;98571.50;;;-1.91;89.09
56894;BME280;43392;50.078;13.704;2024-01-30T08:10:45;98578.59;;;-1.83;88.72
56894;BME280;43392;50.078;13.704;2024-01-30T08:13:11;98568.63;;;-1.80;88.95
56894;BME280;43392;50.078;13.704;2024-01-30T08:15:38;98574.56;;;-1.70;88.21
56894;BME280;43392;50.078;13.704;2024-01-30T08:18:05;98580.97;;;-1.64;88.10
56894;BME280;43392;50.078;13.704;2024-01-30T08:20:32;98579.84;;;-1.62;88.28
56894;BME280;43392;50.078;13.704;2024-01-30T08:23:00;98575.94;;;-1.58;88.06
56894;BME280;43392;50.078;13.704;2024-01-30T08:25:27;98570.34;;;-1.55;87.51
56894;BME280;43392;50.078;13.704;2024-01-30T08:27:53;98567.56;;;-1.53;87.08
56894;BME280;43392;50.078;13.704;2024-01-30T08:30:20;98566.41;;;-1.51;87.56
56894;BME280;43392;50.078;13.704;2024-01-30T08:32:47;98570.69;;;-1.50;86.89
56894;BME280;43392;50.078;13.704;2024-01-30T08:35:13;98565.09;;;-1.47;87.48
56894;BME280;43392;50.078;13.704;2024-01-30T08:37:41;98563.78;;;-1.43;87.08
56894;BME280;43392;50.078;13.704;2024-01-30T08:40:10;98564.31;;;-1.39;87.01
56894;BME280;43392;50.078;13.704;2024-01-30T08:42:36;98560.53;;;-1.37;86.63
56894;BME280;43392;50.078;13.704;2024-01-30T08:45:04;98560.34;;;-1.35;86.75
56894;BME280;43392;50.078;13.704;2024-01-30T08:47:31;98564.34;;;-1.31;86.68
56894;BME280;43392;50.078;13.704;2024-01-30T08:49:58;98563.31;;;-1.30;86.38
56894;BME280;43392;50.078;13.704;2024-01-30T08:52:25;98564.34;;;-1.31;86.68
56894;BME280;43392;50.078;13.704;2024-01-30T08:54:51;98559.06;;;-1.31;86.46
56894;BME280;43392;50.078;13.704;2024-01-30T08:57:19;98570.56;;;-1.32;86.79
56894;BME280;43392;50.078;13.704;2024-01-30T08:59:46;98563.50;;;-1.31;86.90
56894;BME280;43392;50.078;13.704;2024-01-30T09:02:13;98564.16;;;-1.29;86.47
56894;BME280;43392;50.078;13.704;2024-01-30T09:04:41;98566.13;;;-1.23;86.65
56894;BME280;43392;50.078;13.704;2024-01-30T09:07:09;98552.16;;;-1.16;86.87
56894;BME280;43392;50.078;13.704;2024-01-30T09:09:37;98546.91;;;-1.08;86.54
56894;BME280;43392;50.078;13.704;2024-01-30T09:12:05;98557.59;;;-1.01;86.64
56894;BME280;43392;50.078;13.704;2024-01-30T09:14:35;98555.00;;;-0.93;86.34
56894;BME280;43392;50.078;13.704;2024-01-30T09:17:02;98560.25;;;-0.85;86.14
56894;BME280;43392;50.078;13.704;2024-01-30T09:19:30;98564.22;;;-0.81;86.27
56894;BME280;43392;50.078;13.704;2024-01-30T09:21:56;98569.16;;;-0.78;86.06
56894;BME280;43392;50.078;13.704;2024-01-30T09:24:23;98561.91;;;-0.76;86.38
56894;BME280;43392;50.078;13.704;2024-01-30T09:26:50;98563.53;;;-0.75;86.21
56894;BME280;43392;50.078;13.704;2024-01-30T09:29:16;98553.50;;;-0.80;85.76
56894;BME280;43392;50.078;13.704;2024-01-30T09:31:45;98561.91;;;-0.76;86.08
56894;BME280;43392;50.078;13.704;2024-01-30T09:34:11;98569.13;;;-0.86;85.78
56894;BME280;43392;50.078;13.704;2024-01-30T09:36:39;98580.00;;;-0.81;86.24
56894;BME280;43392;50.078;13.704;2024-01-30T09:39:05;98572.75;;;-0.79;86.38
56894;BME280;43392;50.078;13.704;2024-01-30T09:41:33;98574.06;;;-0.75;86.29
56894;BME280;43392;50.078;13.704;2024-01-30T09:44:03;98580.69;;;-0.71;86.20
56894;BME280;43392;50.078;13.704;2024-01-30T09:46:33;98572.59;;;-0.70;85.98
56894;BME280;43392;50.078;13.704;2024-01-30T09:49:02;98574.75;;;-0.73;85.69
56894;BME280;43392;50.078;13.704;2024-01-30T09:51:30;98585.44;;;-0.67;85.61
56894;BME280;43392;50.078;13.704;2024-01-30T09:53:57;98587.25;;;-0.83;85.55
56894;BME280;43392;50.078;13.704;2024-01-30T09:56:23;98590.38;;;-0.96;85.50
56894;BME280;43392;50.078;13.704;2024-01-30T09:58:50;98590.84;;;-1.08;85.55
56894;BME280;43392;50.078;13.704;2024-01-30T10:01:17;98596.09;;;-1.08;86.18
56894;BME280;43392;50.078;13.704;2024-01-30T10:03:44;98593.66;;;-1.02;86.76
56894;BME280;43392;50.078;13.704;2024-01-30T10:06:14;98594.16;;;-0.90;86.46
56894;BME280;43392;50.078;13.704;2024-01-30T10:08:42;98589.03;;;-0.92;86.63
56894;BME280;43392;50.078;13.704;2024-01-30T10:11:09;98594.31;;;-0.92;86.12
56894;BME280;43392;50.078;13.704;2024-01-30T10:13:35;98592.66;;;-1.01;86.31
56894;BME280;43392;50.078;13.704;2024-01-30T10:16:02;98580.66;;;-1.03;86.20
56894;BME280;43392;50.078;13.704;2024-01-30T10:18:31;98581.94;;;-0.99;86.81
56894;BME280;43392;50.078;13.704;2024-01-30T10:20:58;98577.69;;;-1.00;86.89
56894;BME280;43392;50.078;13.704;2024-01-30T10:23:26;98576.84;;;-1.09;86.78
56894;BME280;43392;50.078;13.704;2024-01-30T10:25:53;98578.16;;;-1.13;87.03
56894;BME280;43392;50.078;13.704;2024-01-30T10:28:20;98574.69;;;-1.13;87.03
56894;BME280;43392;50.078;13.704;2024-01-30T10:30:57;98565.16;;;-1.22;86.74
56894;BME280;43392;50.078;13.704;2024-01-30T10:33:25;98562.53;;;-1.14;87.35
56894;BME280;43392;50.078;13.704;2024-01-30T10:35:54;98559.09;;;-1.07;87.14
56894;BME280;43392;50.078;13.704;2024-01-30T10:38:24;98556.81;;;-1.02;86.85
56894;BME280;43392;50.078;13.704;2024-01-30T10:40:56;98557.78;;;-0.95;86.78
56894;BME280;43392;50.078;13.704;2024-01-30T10:43:24;98554.00;;;-0.84;86.92
56894;BME280;43392;50.078;13.704;2024-01-30T10:45:56;98537.88;;;-0.73;86.39
56894;BME280;43392;50.078;13.704;2024-01-30T10:48:28;98539.34;;;-0.62;86.34
56894;BME280;43392;50.078;13.704;2024-01-30T10:50:57;98539.50;;;-0.56;86.06
56894;BME280;43392;50.078;13.704;2024-01-30T10:53:26;98538.31;;;-0.45;85.75
56894;BME280;43392;50.078;13.704;2024-01-30T10:55:55;98533.22;;;-0.39;85.59
56894;BME280;43392;50.078;13.704;2024-01-30T10:58:24;98531.06;;;-0.35;85.50
56894;BME280;43392;50.078;13.704;2024-01-30T11:00:52;98542.75;;;-0.30;85.81
56894;BME280;43392;50.078;13.704;2024-01-30T11:03:19;98537.81;;;-0.25;85.68
56894;BME280;43392;50.078;13.704;2024-01-30T11:05:49;98532.03;;;-0.20;85.44
56894;BME280;43392;50.078;13.704;2024-01-30T11:08:23;98523.59;;;-0.16;85.33
56894;BME280;43392;50.078;13.704;2024-01-30T11:10:56;98524.75;;;-0.10;85.06
56894;BME280;43392;50.078;13.704;2024-01-30T11:13:26;98525.91;;;-0.13;84.98
56894;BME280;43392;50.078;13.704;2024-01-30T11:15:54;98517.34;;;-0.15;85.58
56894;BME280;43392;50.078;13.704;2024-01-30T11:18:24;98512.75;;;-0.21;85.41
56894;BME280;43392;50.078;13.704;2024-01-30T11:20:51;98511.44;;;-0.25;85.63
56894;BME280;43392;50.078;13.704;2024-01-30T11:23:18;98509.78;;;-0.26;85.47
56894;BME280;43392;50.078;13.704;2024-01-30T11:25:44;98503.22;;;-0.30;85.55
56894;BME280;43392;50.078;13.704;2024-01-30T11:28:15;98500.25;;;-0.27;85.67
56894;BME280;43392;50.078;13.704;2024-01-30T11:30:42;98503.53;;;-0.25;85.39
56894;BME280;43392;50.078;13.704;2024-01-30T11:33:09;98490.34;;;-0.25;85.66
56894;BME280;43392;50.078;13.704;2024-01-30T11:35:38;98499.22;;;-0.18;85.88
56894;BME280;43392;50.078;13.704;2024-01-30T11:38:06;98491.97;;;-0.16;85.58
56894;BME280;43392;50.078;13.704;2024-01-30T11:40:34;98495.25;;;-0.14;85.66
56894;BME280;43392;50.078;13.704;2024-01-30T11:43:02;98497.38;;;-0.09;85.80
56894;BME280;43392;50.078;13.704;2024-01-30T11:45:31;98495.38;;;-0.07;85.81
56894;BME280;43392;50.078;13.704;2024-01-30T11:47:59;98489.63;;;-0.03;86.45
56894;BME280;43392;50.078;13.704;2024-01-30T11:50:29;98492.19;;;0.06;86.15
56894;BME280;43392;50.078;13.704;2024-01-30T11:52:55;98494.31;;;0.10;85.85
56894;BME280;43392;50.078;13.704;2024-01-30T11:55:24;98491.84;;;0.17;85.80
56894;BME280;43392;50.078;13.704;2024-01-30T11:57:51;98487.31;;;0.25;85.65
56894;BME280;43392;50.078;13.704;2024-01-30T12:00:18;98486.44;;;0.41;85.74
56894;BME280;43392;50.078;13.704;2024-01-30T12:02:50;98482.94;;;0.48;85.39
56894;BME280;43392;50.078;13.704;2024-01-30T12:05:21;98486.63;;;0.62;85.22
56894;BME280;43392;50.078;13.704;2024-01-30T12:07:48;98484.91;;;0.69;85.00
56894;BME280;43392;50.078;13.704;2024-01-30T12:10:15;98483.56;;;0.73;84.65
56894;BME280;43392;50.078;13.704;2024-01-30T12:12:44;98488.03;;;0.73;84.61
56894;BME280;43392;50.078;13.704;2024-01-30T12:15:12;98476.66;;;0.72;84.39
56894;BME280;43392;50.078;13.704;2024-01-30T12:17:39;98480.47;;;0.70;84.51
56894;BME280;43392;50.078;13.704;2024-01-30T12:20:09;98477.47;;;0.73;84.52
56894;BME280;43392;50.078;13.704;2024-01-30T12:22:37;98479.97;;;0.66;84.25
56894;BME280;43392;50.078;13.704;2024-01-30T12:25:05;98473.72;;;0.67;84.43
56894;BME280;43392;50.078;13.704;2024-01-30T12:27:31;98480.47;;;0.70;84.31
56894;BME280;43392;50.078;13.704;2024-01-30T12:29:58;98481.09;;;0.72;84.35
56894;BME280;43392;50.078;13.704;2024-01-30T12:32:25;98482.09;;;0.71;84.33
56894;BME280;43392;50.078;13.704;2024-01-30T12:34:54;98476.47;;;0.74;84.37
56894;BME280;43392;50.078;13.704;2024-01-30T12:37:23;98471.09;;;0.67;84.20
56894;BME280;43392;50.078;13.704;2024-01-30T12:39:51;98463.31;;;0.65;84.74
56894;BME280;43392;50.078;13.704;2024-01-30T12:42:19;98466.78;;;0.66;84.58
56894;BME280;43392;50.078;13.704;2024-01-30T12:44:47;98467.97;;;0.63;84.41
56894;BME280;43392;50.078;13.704;2024-01-30T12:47:14;98461.50;;;0.66;84.72
56894;BME280;43392;50.078;13.704;2024-01-30T12:49:42;98461.16;;;0.69;84.43